createdAt,value
2022-08-03T04:30:59.997Z,99.99
2022-08-03T04:31:59.976Z,99.99
2022-08-03T04:32:59.958Z,99.99
2022-08-03T04:33:59.938Z,99.99
2022-08-03T04:34:59.937Z,99.99
2022-08-03T04:36:02.661Z,99.99
2022-08-03T04:36:59.907Z,99.99
2022-08-03T04:37:59.888Z,99.99
2022-08-03T04:38:59.877Z,99.99
2022-08-03T04:39:59.867Z,99.99
2022-08-03T04:40:59.857Z,99.99
2022-08-03T04:42:08.122Z,99.99
2022-08-03T04:43:50.494Z,99.99
2022-08-03T04:44:50.472Z,99.99
2022-08-03T04:45:50.471Z,99.99
2022-08-03T04:46:50.559Z,99.99
2022-08-03T04:47:50.433Z,99.99
2022-08-03T04:48:50.423Z,99.99
2022-08-03T04:49:50.404Z,99.99
2022-08-03T04:50:50.414Z,99.99
2022-08-03T04:51:50.381Z,99.99
2022-08-03T04:52:50.584Z,99.99
2022-08-03T04:53:50.360Z,99.99
2022-08-03T04:54:51.109Z,99.99
2022-08-03T04:55:50.341Z,99.99
2022-08-03T04:56:50.322Z,99.99
2022-08-03T04:57:50.311Z,99.99
2022-08-03T04:58:50.293Z,99.64
2022-08-03T04:59:50.392Z,99.54
2022-08-03T05:00:50.275Z,99.33
2022-08-03T05:01:50.376Z,99.24
2022-08-03T05:02:50.241Z,99.59
2022-08-03T05:03:50.231Z,99.14
2022-08-03T05:04:50.219Z,97.78
2022-08-03T05:05:50.903Z,96.23
2022-08-03T05:06:54.127Z,94.78
2022-08-03T05:07:51.183Z,93.52
2022-08-03T05:08:50.896Z,93.02
2022-08-03T05:09:52.790Z,92.96
2022-08-03T05:10:51.159Z,93.27
2022-08-03T05:11:50.142Z,93.02
2022-08-03T05:12:50.113Z,92.52
2022-08-03T05:13:50.091Z,92.07
2022-08-03T05:14:50.103Z,91.97
2022-08-03T05:15:50.100Z,91.87
2022-08-03T05:16:50.091Z,91.77
2022-08-03T05:17:50.054Z,91.57
2022-08-03T05:18:50.043Z,91.57
2022-08-03T05:19:50.023Z,91.32
2022-08-03T05:20:50.082Z,90.92
2022-08-03T05:21:52.609Z,90.72
2022-08-03T05:22:49.990Z,90.48
2022-08-03T05:23:49.972Z,89.87
2022-08-03T05:24:49.962Z,89.67
2022-08-03T05:25:50.320Z,88.77
2022-08-03T05:26:49.946Z,88.77
2022-08-03T05:27:50.011Z,88.77
2022-08-03T05:28:50.611Z,88.73
2022-08-03T05:29:49.892Z,87.52
2022-08-03T05:30:49.883Z,87.12
2022-08-03T05:31:49.882Z,86.88
2022-08-03T05:32:49.886Z,86.38
2022-08-03T05:33:49.852Z,86.38
2022-08-03T05:34:49.833Z,86.08
2022-08-03T05:35:57.265Z,86.18
2022-08-03T05:36:50.823Z,85.63
2022-08-03T05:37:54.443Z,85.33
2022-08-03T05:38:50.793Z,85.53
2022-08-03T05:39:49.840Z,84.93
2022-08-03T05:40:56.748Z,85.03
2022-08-03T05:41:50.753Z,85.10
2022-08-03T05:42:49.732Z,85.10
2022-08-03T05:43:49.718Z,83.99
2022-08-03T05:44:49.731Z,84.15
2022-08-03T05:45:49.682Z,84.15
2022-08-03T05:46:50.682Z,83.65
2022-08-03T05:47:49.662Z,83.45
2022-08-03T05:48:49.698Z,83.15
2022-08-03T05:49:49.631Z,83.15
2022-08-03T05:50:49.661Z,82.61
2022-08-03T05:52:00.379Z,82.61
2022-08-03T05:52:50.604Z,83.51
2022-08-03T05:53:49.590Z,82.31
2022-08-03T05:54:57.324Z,82.11
2022-08-03T05:55:54.823Z,82.77
2022-08-03T05:56:50.553Z,83.07
2022-08-03T05:57:49.532Z,82.77
2022-08-03T05:58:49.570Z,83.17
2022-08-03T05:59:53.711Z,81.37
2022-08-03T06:00:50.495Z,80.87
2022-08-03T06:01:49.574Z,81.17
2022-08-03T06:02:49.473Z,81.13
2022-08-03T06:03:49.455Z,81.23
2022-08-03T06:04:49.444Z,81.83
2022-08-03T06:05:55.574Z,81.53
2022-08-03T06:06:50.436Z,81.33
2022-08-03T06:07:49.410Z,81.13
2022-08-03T06:08:49.394Z,80.83
2022-08-03T06:10:35.482Z,81.03
2022-08-03T06:10:50.364Z,80.43
2022-08-03T06:11:49.354Z,80.73
2022-08-03T06:12:49.345Z,80.49
2022-08-03T06:13:49.345Z,80.69
2022-08-03T06:14:49.315Z,80.59
2022-08-03T06:15:49.303Z,80.19
2022-08-03T06:16:49.306Z,79.29
2022-08-03T06:17:49.275Z,79.59
2022-08-03T06:18:49.263Z,79.25
2022-08-03T06:19:49.244Z,79.75
2022-08-03T06:20:49.600Z,79.46
2022-08-03T06:21:49.232Z,78.55
2022-08-03T06:22:50.777Z,78.36
2022-08-03T06:23:53.851Z,79.05
2022-08-03T06:24:53.443Z,78.36
2022-08-03T06:25:49.179Z,78.05
2022-08-03T06:26:49.164Z,78.31
2022-08-03T06:27:49.155Z,77.42
2022-08-03T06:28:52.168Z,77.92
2022-08-03T06:29:49.155Z,77.51
2022-08-03T06:30:49.782Z,76.78
2022-08-03T06:31:49.114Z,77.18
2022-08-03T06:32:52.218Z,77.08
2022-08-03T06:34:33.789Z,76.95
2022-08-03T06:34:50.057Z,77.04
2022-08-03T06:35:49.047Z,76.84
2022-08-03T06:36:49.028Z,76.25
2022-08-03T06:37:49.047Z,76.04
2022-08-03T06:38:48.996Z,76.54
2022-08-03T06:39:48.996Z,76.54
2022-08-03T06:40:48.978Z,76.25
2022-08-03T06:41:48.966Z,76.11
2022-08-03T06:42:48.957Z,75.81
2022-08-03T06:44:02.933Z,75.31
2022-08-03T06:44:49.936Z,75.18
2022-08-03T06:45:48.905Z,75.57
2022-08-03T06:46:48.908Z,74.38
2022-08-03T06:47:48.909Z,74.84
2022-08-03T06:48:48.896Z,74.34
2022-08-03T06:50:13.017Z,73.44
2022-08-03T06:50:49.846Z,73.74
2022-08-03T06:52:37.069Z,73.85
2022-08-03T06:52:49.849Z,73.74
2022-08-03T06:53:48.815Z,74.54
2022-08-03T06:54:48.814Z,74.24
2022-08-03T06:55:53.871Z,73.55
2022-08-03T06:56:49.766Z,74.44
2022-08-03T06:57:48.775Z,74.24
2022-08-03T06:58:48.748Z,75.14
2022-08-03T07:00:09.680Z,74.21
2022-08-03T07:00:49.719Z,74.11
2022-08-03T07:01:48.757Z,74.17
2022-08-03T07:02:48.706Z,73.68
2022-08-03T07:03:52.122Z,73.38
2022-08-03T07:04:48.679Z,72.55
2022-08-03T07:05:48.657Z,72.34
2022-08-03T07:06:48.638Z,72.25
2022-08-03T07:07:48.647Z,72.25
2022-08-03T07:08:52.298Z,72.41
2022-08-03T07:09:56.628Z,72.81
2022-08-03T07:10:49.587Z,72.01
2022-08-03T07:11:48.577Z,71.42
2022-08-03T07:12:52.644Z,71.38
2022-08-03T07:13:49.561Z,71.42
2022-08-03T07:14:48.539Z,70.92
2022-08-03T07:15:55.633Z,71.31
2022-08-03T07:16:49.517Z,71.08
2022-08-03T07:17:48.519Z,70.89
2022-08-03T07:18:48.488Z,70.89
2022-08-03T07:19:48.478Z,70.19
2022-08-03T07:20:48.466Z,70.48
2022-08-03T07:21:48.457Z,70.25
2022-08-03T07:22:48.448Z,70.85
2022-08-03T07:23:48.429Z,70.45
2022-08-03T07:24:48.419Z,70.65
2022-08-03T07:25:48.417Z,70.65
2022-08-03T07:26:48.399Z,70.45
2022-08-03T07:27:51.684Z,70.25
2022-08-03T07:28:48.360Z,70.12
2022-08-03T07:29:48.360Z,69.53
2022-08-03T07:30:48.363Z,68.63
2022-08-03T07:31:48.330Z,68.63
2022-08-03T07:32:50.350Z,69.03
2022-08-03T07:33:48.310Z,68.70
2022-08-03T07:34:48.290Z,68.00
2022-08-03T07:35:48.281Z,67.21
2022-08-03T07:36:48.259Z,67.11
2022-08-03T07:37:54.436Z,67.21
2022-08-03T07:38:49.239Z,67.27
2022-08-03T07:39:48.229Z,67.27
2022-08-03T07:40:48.212Z,66.88
2022-08-03T07:41:48.200Z,66.81
2022-08-03T07:42:48.199Z,66.11
2022-08-03T07:43:48.171Z,66.18
2022-08-03T07:44:48.170Z,66.48
2022-08-03T07:45:48.149Z,66.08
2022-08-03T07:46:48.140Z,66.38
2022-08-03T07:47:53.690Z,65.66
2022-08-03T07:48:49.111Z,65.26
2022-08-03T07:49:48.099Z,65.66
2022-08-03T07:50:48.091Z,65.26
2022-08-03T07:51:48.071Z,65.26
2022-08-03T07:52:48.071Z,64.73
2022-08-03T07:53:48.083Z,64.93
2022-08-03T07:54:48.040Z,64.83
2022-08-03T07:55:48.019Z,64.14
2022-08-03T07:56:48.011Z,64.34
2022-08-03T07:57:48.009Z,64.93
2022-08-03T07:58:47.983Z,65.23
2022-08-03T07:59:56.401Z,64.90
2022-08-03T08:00:49.025Z,65.00
2022-08-03T08:01:48.007Z,64.90
2022-08-03T08:02:47.941Z,64.40
2022-08-03T08:03:53.456Z,64.60
2022-08-03T08:04:48.901Z,63.91
2022-08-03T08:05:47.883Z,63.91
2022-08-03T08:06:47.873Z,63.51
2022-08-03T08:07:51.490Z,63.51
2022-08-03T08:08:47.852Z,64.20
2022-08-03T08:09:47.833Z,64.01
2022-08-03T08:10:57.824Z,63.28
2022-08-03T08:11:48.810Z,63.09
2022-08-03T08:12:47.842Z,63.25
2022-08-03T08:13:47.790Z,63.06
2022-08-03T08:14:47.772Z,62.36
2022-08-03T08:15:47.756Z,62.56
2022-08-03T08:16:47.743Z,62.36
2022-08-03T08:17:47.743Z,62.36
2022-08-03T08:18:47.722Z,62.76
2022-08-03T08:19:51.538Z,62.63
2022-08-03T08:20:47.703Z,62.53
2022-08-03T08:21:53.470Z,61.44
2022-08-03T08:22:48.693Z,62.43
2022-08-03T08:23:57.026Z,61.83
2022-08-03T08:24:48.654Z,61.15
2022-08-03T08:25:47.647Z,61.05
2022-08-03T08:26:47.624Z,61.31
2022-08-03T08:28:30.756Z,61.02
2022-08-03T08:28:48.599Z,61.44
2022-08-03T08:29:54.195Z,61.74
2022-08-03T08:30:48.594Z,61.44
2022-08-03T08:31:47.557Z,61.11
2022-08-03T08:32:47.546Z,61.64
2022-08-03T08:34:03.675Z,61.41
2022-08-03T08:34:48.514Z,61.34
2022-08-03T08:35:47.504Z,61.34
2022-08-03T08:36:47.507Z,61.44
2022-08-03T08:37:51.106Z,60.82
2022-08-03T08:38:47.487Z,60.94
2022-08-03T08:39:47.454Z,61.34
2022-08-03T08:40:47.444Z,61.24
2022-08-03T08:41:49.637Z,60.65
2022-08-03T08:42:57.844Z,60.75
2022-08-03T08:43:48.414Z,60.35
2022-08-03T08:44:47.394Z,60.55
2022-08-03T08:45:47.382Z,60.92
2022-08-03T08:46:47.371Z,60.22
2022-08-03T08:47:51.067Z,59.93
2022-08-03T08:48:47.353Z,59.93
2022-08-03T08:50:08.473Z,60.19
2022-08-03T08:50:48.319Z,59.41
2022-08-03T08:51:59.708Z,59.41
2022-08-03T08:52:48.296Z,58.98
2022-08-03T08:53:47.285Z,58.69
2022-08-03T08:54:47.266Z,58.75
2022-08-03T08:55:59.400Z,57.77
2022-08-03T08:56:48.245Z,58.16
2022-08-03T08:57:47.227Z,58.26
2022-08-03T08:58:47.226Z,59.05
2022-08-03T08:59:49.290Z,58.86
2022-08-03T09:00:47.224Z,58.65
2022-08-03T09:01:47.176Z,58.06
2022-08-03T09:02:47.166Z,58.16
2022-08-03T09:03:47.167Z,58.46
2022-08-03T09:04:47.146Z,58.06
2022-08-03T09:05:55.829Z,58.23
2022-08-03T09:07:10.554Z,56.33
2022-08-03T09:07:48.098Z,56.65
2022-08-03T09:08:47.108Z,56.56
2022-08-03T09:10:11.436Z,56.85
2022-08-03T09:10:48.068Z,57.74
2022-08-03T09:12:00.418Z,58.04
2022-08-03T09:12:48.040Z,57.24
2022-08-03T09:13:47.035Z,56.85
2022-08-03T09:15:07.315Z,57.24
2022-08-03T09:15:57.180Z,57.05
2022-08-03T09:16:47.998Z,56.95
2022-08-03T09:17:50.920Z,56.46
2022-08-03T09:18:46.977Z,56.85
2022-08-03T09:20:03.466Z,56.75
2022-08-03T09:20:47.939Z,57.02
2022-08-03T09:21:46.926Z,56.13
2022-08-03T09:22:46.918Z,56.40
2022-08-03T09:24:01.328Z,55.41
2022-08-03T09:25:03.205Z,56.13
2022-08-03T09:25:47.869Z,56.01
2022-08-03T09:26:46.859Z,55.71
2022-08-03T09:27:46.849Z,56.40
2022-08-03T09:29:01.491Z,56.50
2022-08-03T09:29:47.830Z,55.62
2022-08-03T09:30:46.810Z,56.01
2022-08-03T09:31:47.141Z,55.71
2022-08-03T09:32:46.788Z,55.91
2022-08-03T09:33:46.769Z,55.81
2022-08-03T09:34:46.779Z,54.99
2022-08-03T09:35:54.985Z,54.55
2022-08-03T09:36:47.739Z,54.03
2022-08-03T09:38:12.291Z,51.91
2022-08-03T09:38:47.712Z,51.67
2022-08-03T09:39:46.715Z,50.66
2022-08-03T09:40:46.680Z,51.59
2022-08-03T09:41:46.672Z,52.50
2022-08-03T09:42:46.662Z,53.31
2022-08-03T09:43:46.662Z,54.20
2022-08-03T09:44:46.640Z,54.49
2022-08-03T09:45:46.618Z,53.86
2022-08-03T09:46:46.613Z,54.45
2022-08-03T09:47:46.610Z,54.35
2022-08-03T09:48:46.621Z,54.68
2022-08-03T09:49:46.570Z,54.50
2022-08-03T09:50:57.135Z,55.68
2022-08-03T09:52:32.613Z,55.29
2022-08-03T09:52:49.833Z,55.58
2022-08-03T09:53:57.093Z,55.79
2022-08-03T09:54:47.515Z,55.85
2022-08-03T09:56:35.002Z,55.36
2022-08-03T09:56:47.510Z,55.73
2022-08-03T09:57:46.474Z,55.33
2022-08-03T09:58:46.462Z,54.91
2022-08-03T09:59:46.456Z,54.99
2022-08-03T10:00:46.485Z,53.78
2022-08-03T10:01:46.556Z,53.98
2022-08-03T10:02:46.414Z,52.25
2022-08-03T10:03:47.012Z,51.27
2022-08-03T10:04:47.403Z,51.47
2022-08-03T10:05:46.374Z,50.66
2022-08-03T10:06:46.377Z,51.15
2022-08-03T10:07:46.410Z,50.14
2022-08-03T10:08:46.338Z,50.73
2022-08-03T10:09:46.334Z,50.12
2022-08-03T10:10:46.322Z,49.73
2022-08-03T10:11:46.294Z,49.21
2022-08-03T10:12:46.284Z,49.07
2022-08-03T10:13:46.273Z,49.82
2022-08-03T10:14:46.275Z,48.24
2022-08-03T10:16:22.241Z,48.36
2022-08-03T10:16:47.234Z,48.94
2022-08-03T10:17:46.214Z,49.24
2022-08-03T10:18:46.214Z,48.26
2022-08-03T10:19:46.205Z,47.53
2022-08-03T10:20:46.186Z,47.63
2022-08-03T10:21:46.169Z,47.41
2022-08-03T10:22:46.156Z,46.94
2022-08-03T10:23:46.149Z,49.24
2022-08-03T10:24:46.145Z,45.55
2022-08-03T10:25:46.117Z,45.72
2022-08-03T10:26:49.505Z,46.97
2022-08-03T10:27:46.096Z,45.72
2022-08-03T10:28:46.087Z,45.26
2022-08-03T10:29:46.077Z,46.89
2022-08-03T10:30:46.069Z,47.79
2022-08-03T10:31:55.875Z,48.63
2022-08-03T10:32:47.038Z,49.43
2022-08-03T10:33:50.805Z,49.73
2022-08-03T10:34:47.019Z,50.34
2022-08-03T10:35:45.998Z,50.81
2022-08-03T10:36:45.988Z,48.70
2022-08-03T10:37:56.412Z,47.97
2022-08-03T10:38:46.971Z,47.28
2022-08-03T10:39:45.959Z,47.26
2022-08-03T10:40:49.353Z,47.53
2022-08-03T10:41:46.927Z,46.26
2022-08-03T10:42:45.914Z,48.55
2022-08-03T10:43:52.951Z,49.31
2022-08-03T10:44:45.924Z,49.65
2022-08-03T10:45:45.904Z,50.78
2022-08-03T10:46:45.883Z,51.10
2022-08-03T10:47:45.876Z,52.67
2022-08-03T10:48:45.844Z,51.96
2022-08-03T10:49:45.889Z,49.31
2022-08-03T10:50:45.814Z,46.59
2022-08-03T10:51:45.810Z,46.43
2022-08-03T10:52:49.149Z,47.19
2022-08-03T10:53:52.812Z,46.00
2022-08-03T10:54:46.775Z,45.31
2022-08-03T10:55:45.757Z,44.38
2022-08-03T10:56:50.425Z,45.26
2022-08-03T10:57:45.822Z,44.46
2022-08-03T10:58:56.957Z,44.85
2022-08-03T10:59:46.795Z,44.78
2022-08-03T11:00:45.728Z,44.15
2022-08-03T11:01:58.640Z,42.40
2022-08-03T11:02:46.667Z,43.57
2022-08-03T11:03:45.665Z,43.05
2022-08-03T11:04:45.657Z,43.81
2022-08-03T11:05:45.659Z,42.02
2022-08-03T11:06:45.638Z,41.90
2022-08-03T11:07:45.656Z,42.49
2022-08-03T11:08:46.610Z,42.24
2022-08-03T11:09:45.598Z,42.38
2022-08-03T11:10:45.577Z,42.69
2022-08-03T11:11:45.566Z,43.90
2022-08-03T11:12:45.565Z,43.85
2022-08-03T11:13:45.577Z,44.77
2022-08-03T11:14:45.548Z,45.33
2022-08-03T11:15:45.519Z,43.95
2022-08-03T11:16:45.501Z,43.73
2022-08-03T11:17:46.136Z,43.61
2022-08-03T11:18:46.479Z,43.99
2022-08-03T11:19:57.455Z,46.90
2022-08-03T11:20:46.469Z,44.46
2022-08-03T11:21:45.459Z,45.39
2022-08-03T11:22:45.471Z,45.23
2022-08-03T11:24:05.421Z,44.96
2022-08-03T11:24:46.435Z,44.55
2022-08-03T11:25:54.807Z,44.45
2022-08-03T11:26:46.404Z,43.46
2022-08-03T11:27:45.397Z,43.73
2022-08-03T11:28:45.361Z,44.29
2022-08-03T11:29:45.352Z,43.00
2022-08-03T11:30:45.350Z,42.61
2022-08-03T11:31:50.392Z,41.40
2022-08-03T11:32:46.693Z,41.95
2022-08-03T11:33:45.310Z,44.06
2022-08-03T11:34:45.290Z,45.40
2022-08-03T11:35:45.292Z,45.91
2022-08-03T11:36:45.262Z,46.50
2022-08-03T11:38:04.395Z,45.56
2022-08-03T11:38:46.291Z,42.69
2022-08-03T11:39:45.231Z,44.23
2022-08-03T11:40:45.227Z,42.28
2022-08-03T11:41:45.423Z,41.89
2022-08-03T11:42:45.218Z,42.74
2022-08-03T11:43:45.194Z,41.61
2022-08-03T11:44:47.521Z,43.68
2022-08-03T11:45:45.174Z,42.83
2022-08-03T11:46:45.153Z,43.55
2022-08-03T11:47:50.218Z,44.94
2022-08-03T11:48:46.125Z,44.63
2022-08-03T11:49:45.122Z,44.31
2022-08-03T11:50:45.115Z,43.41
2022-08-03T11:51:45.104Z,43.51
2022-08-03T11:52:45.077Z,43.88
2022-08-03T11:53:45.075Z,43.15
2022-08-03T11:54:45.060Z,41.05
2022-08-03T11:55:45.056Z,43.32
2022-08-03T11:56:45.038Z,38.83
2022-08-03T11:59:01.153Z,38.64
2022-08-03T11:59:12.806Z,39.47
2022-08-03T11:59:46.018Z,40.87
2022-08-03T12:00:45.024Z,37.84
2022-08-03T12:01:44.987Z,38.15
2022-08-03T12:02:45.018Z,38.42
2022-08-03T12:03:46.035Z,38.96
2022-08-03T12:04:44.938Z,38.81
2022-08-03T12:05:51.697Z,42.53
2022-08-03T12:06:47.427Z,39.78
2022-08-03T12:08:03.714Z,39.75
2022-08-03T12:08:45.887Z,39.45
2022-08-03T12:09:44.881Z,39.57
2022-08-03T12:10:44.881Z,38.98
2022-08-03T12:11:50.881Z,41.42
2022-08-03T12:12:46.672Z,39.72
2022-08-03T12:14:43.733Z,38.32
2022-08-03T12:14:51.857Z,38.06
2022-08-03T12:15:45.819Z,38.37
2022-08-03T12:16:44.798Z,38.64
2022-08-03T12:17:44.788Z,37.74
2022-08-03T12:18:44.770Z,38.52
2022-08-03T12:19:44.760Z,36.38
2022-08-03T12:20:44.759Z,36.71
2022-08-03T12:21:44.740Z,38.05
2022-08-03T12:22:45.741Z,40.06
2022-08-03T12:23:44.740Z,40.27
2022-08-03T12:24:46.905Z,42.90
2022-08-03T12:25:44.721Z,40.73
2022-08-03T12:26:44.688Z,40.00
2022-08-03T12:27:45.671Z,37.51
2022-08-03T12:28:49.347Z,38.06
2022-08-03T12:29:58.389Z,39.28
2022-08-03T12:30:46.497Z,36.35
2022-08-03T12:31:44.622Z,35.77
2022-08-03T12:32:44.612Z,36.51
2022-08-03T12:33:44.603Z,35.15
2022-08-03T12:34:47.246Z,36.12
2022-08-03T12:35:52.220Z,35.62
2022-08-03T12:36:45.565Z,35.91
2022-08-03T12:37:44.553Z,39.49
2022-08-03T12:38:44.542Z,35.15
2022-08-03T12:40:02.213Z,40.09
2022-08-03T12:40:45.534Z,36.10
2022-08-03T12:41:44.594Z,35.42
2022-08-03T12:42:44.504Z,35.52
2022-08-03T12:43:44.495Z,35.27
2022-08-03T12:44:44.478Z,36.36
2022-08-03T12:45:44.475Z,36.83
2022-08-03T12:46:47.943Z,37.21
2022-08-03T12:47:44.445Z,35.36
2022-08-03T12:48:44.439Z,34.69
2022-08-03T12:49:44.426Z,37.13
2022-08-03T12:50:44.430Z,35.49
2022-08-03T12:51:44.405Z,35.85
2022-08-03T12:52:44.387Z,34.94
2022-08-03T12:53:44.401Z,35.33
2022-08-03T12:54:44.356Z,33.49
2022-08-03T12:56:04.358Z,34.51
2022-08-03T12:56:45.347Z,35.13
2022-08-03T12:57:44.337Z,36.32
2022-08-03T12:58:44.316Z,35.84
2022-08-03T12:59:49.923Z,36.21
2022-08-03T13:00:45.298Z,36.27
2022-08-03T13:01:55.400Z,35.51
2022-08-03T13:02:46.428Z,36.00
2022-08-03T13:03:49.571Z,35.25
2022-08-03T13:04:45.247Z,36.77
2022-08-03T13:05:44.249Z,36.07
2022-08-03T13:06:44.237Z,37.02
2022-08-03T13:07:45.874Z,35.64
2022-08-03T13:08:44.198Z,35.41
2022-08-03T13:09:44.197Z,37.51
2022-08-03T13:10:44.185Z,35.27
2022-08-03T13:11:55.724Z,36.99
2022-08-03T13:12:45.213Z,36.88
2022-08-03T13:13:44.148Z,36.30
2022-08-03T13:14:44.130Z,36.22
2022-08-03T13:15:47.807Z,35.62
2022-08-03T13:16:44.127Z,37.75
2022-08-03T13:17:44.109Z,37.85
2022-08-03T13:18:44.099Z,34.65
2022-08-03T13:19:44.089Z,35.48
2022-08-03T13:20:44.070Z,36.27
2022-08-03T13:22:01.410Z,36.66
2022-08-03T13:22:45.049Z,38.27
2022-08-03T13:23:44.062Z,35.23
2022-08-03T13:24:44.065Z,34.94
2022-08-03T13:25:55.194Z,36.57
2022-08-03T13:26:45.062Z,34.55
2022-08-03T13:28:04.517Z,34.67
2022-08-03T13:28:44.980Z,35.83
2022-08-03T13:29:43.971Z,34.67
2022-08-03T13:30:43.961Z,33.99
2022-08-03T13:31:51.182Z,34.51
2022-08-03T13:32:44.931Z,35.22
2022-08-03T13:33:43.932Z,36.22
2022-08-03T13:34:43.913Z,36.30
2022-08-03T13:35:43.902Z,35.49
2022-08-03T13:37:07.855Z,34.70
2022-08-03T13:37:47.399Z,35.01
2022-08-03T13:38:43.931Z,35.69
2022-08-03T13:39:57.993Z,35.38
2022-08-03T13:40:46.105Z,34.88
2022-08-03T13:41:43.842Z,34.30
2022-08-03T13:42:43.856Z,34.49
2022-08-03T13:43:44.764Z,34.28
2022-08-03T13:44:43.824Z,34.38
2022-08-03T13:45:49.378Z,34.47
2022-08-03T13:46:44.782Z,35.23
2022-08-03T13:47:43.807Z,34.54
2022-08-03T13:48:43.765Z,33.55
2022-08-03T13:49:59.510Z,34.70
2022-08-03T13:50:44.735Z,34.41
2022-08-03T13:51:43.728Z,35.30
2022-08-03T13:52:43.727Z,35.21
2022-08-03T13:53:43.732Z,34.39
2022-08-03T13:54:46.145Z,36.60
2022-08-03T13:55:43.684Z,35.35
2022-08-03T13:56:43.665Z,36.40
2022-08-03T13:58:03.795Z,33.87
2022-08-03T13:58:44.647Z,33.41
2022-08-03T13:59:43.637Z,34.27
2022-08-03T14:00:43.626Z,35.52
2022-08-03T14:01:55.015Z,33.78
2022-08-03T14:02:44.675Z,35.33
2022-08-03T14:03:43.626Z,34.17
2022-08-03T14:04:43.597Z,34.38
2022-08-03T14:05:43.622Z,33.20
2022-08-03T14:06:45.966Z,33.39
2022-08-03T14:07:43.556Z,33.78
2022-08-03T14:08:43.548Z,34.15
2022-08-03T14:09:43.519Z,33.36
2022-08-03T14:10:43.520Z,33.75
2022-08-03T14:12:08.467Z,34.20
2022-08-03T14:12:44.506Z,32.36
2022-08-03T14:13:43.479Z,32.46
2022-08-03T14:14:43.468Z,34.95
2022-08-03T14:15:43.458Z,33.22
2022-08-03T14:16:44.448Z,32.34
2022-08-03T14:17:50.126Z,33.54
2022-08-03T14:18:44.418Z,33.75
2022-08-03T14:19:53.590Z,34.31
2022-08-03T14:20:48.660Z,34.20
2022-08-03T14:21:44.389Z,32.49
2022-08-03T14:22:44.419Z,32.99
2022-08-03T14:23:43.371Z,35.21
2022-08-03T14:24:43.358Z,33.01
2022-08-03T14:25:50.341Z,33.97
2022-08-03T14:26:44.351Z,33.28
2022-08-03T14:27:43.321Z,34.34
2022-08-03T14:28:43.353Z,35.12
2022-08-03T14:29:43.308Z,32.89
2022-08-03T14:30:43.290Z,34.63
2022-08-03T14:32:09.875Z,33.28
2022-08-03T14:32:44.269Z,33.80
2022-08-03T14:33:43.271Z,34.28
2022-08-03T14:34:43.253Z,33.89
2022-08-03T14:35:43.241Z,35.91
2022-08-03T14:36:43.222Z,33.10
2022-08-03T14:37:43.212Z,34.45
2022-08-03T14:38:43.218Z,32.51
2022-08-03T14:39:59.962Z,32.91
2022-08-03T14:40:44.188Z,33.60
2022-08-03T14:41:43.170Z,34.19
2022-08-03T14:42:43.160Z,33.59
2022-08-03T14:44:01.040Z,33.52
2022-08-03T14:44:44.145Z,34.57
2022-08-03T14:45:43.122Z,34.30
2022-08-03T14:46:43.142Z,34.01
2022-08-03T14:50:33.696Z,34.77
2022-08-03T14:50:33.784Z,34.88
2022-08-03T14:50:35.966Z,34.07
2022-08-03T14:50:50.284Z,33.57
2022-08-03T14:51:53.323Z,33.36
2022-08-03T14:52:44.052Z,34.33
2022-08-03T14:53:43.054Z,33.25
2022-08-03T14:54:43.026Z,35.36
2022-08-03T14:55:50.690Z,32.46
2022-08-03T14:56:44.003Z,32.96
2022-08-03T14:57:42.992Z,33.72
2022-08-03T14:58:42.984Z,33.33
2022-08-03T14:59:55.515Z,32.86
2022-08-03T15:00:43.964Z,33.76
2022-08-03T15:02:02.545Z,34.36
2022-08-03T15:02:43.957Z,34.65
2022-08-03T15:03:42.954Z,33.78
2022-08-03T15:04:42.905Z,33.76
2022-08-03T15:05:42.913Z,33.94
2022-08-03T15:06:42.885Z,33.63
2022-08-03T15:07:42.876Z,32.57
2022-08-03T15:08:51.380Z,32.65
2022-08-03T15:09:43.856Z,32.36
2022-08-03T15:10:45.279Z,35.16
2022-08-03T15:11:42.847Z,32.82
2022-08-03T15:12:42.816Z,32.64
2022-08-03T15:13:42.888Z,33.39
2022-08-03T15:14:42.804Z,33.02
2022-08-03T15:15:42.804Z,32.54
2022-08-03T15:16:42.767Z,32.86
2022-08-03T15:17:59.766Z,33.37
2022-08-03T15:18:43.798Z,33.59
2022-08-03T15:20:01.997Z,33.80
2022-08-03T15:20:45.937Z,34.38
2022-08-03T15:21:47.408Z,34.75
2022-08-03T15:22:43.717Z,34.36
2022-08-03T15:23:42.709Z,33.76
2022-08-03T15:24:42.688Z,33.86
2022-08-03T15:26:32.048Z,34.17
2022-08-03T15:26:43.660Z,33.89
2022-08-03T15:28:04.112Z,36.35
2022-08-03T15:28:43.648Z,37.34
2022-08-03T15:30:05.527Z,34.99
2022-08-03T15:30:43.618Z,34.47
2022-08-03T15:31:42.631Z,33.87
2022-08-03T15:32:42.597Z,34.36
2022-08-03T15:33:42.608Z,33.37
2022-08-03T15:34:42.580Z,33.07
2022-08-03T15:35:43.569Z,33.17
2022-08-03T15:36:42.571Z,32.99
2022-08-03T15:37:42.553Z,32.60
2022-08-03T15:38:42.539Z,33.84
2022-08-03T15:39:59.830Z,33.44
2022-08-03T15:40:43.511Z,36.22
2022-08-03T15:41:42.500Z,33.52
2022-08-03T15:42:42.490Z,33.23
2022-08-03T15:43:42.490Z,33.81
2022-08-03T15:44:43.462Z,32.24
2022-08-03T15:45:42.468Z,34.29
2022-08-03T15:46:42.449Z,32.56
2022-08-03T15:47:42.442Z,32.10
2022-08-03T15:48:42.430Z,33.57
2022-08-03T15:49:42.412Z,33.36
2022-08-03T15:50:42.391Z,32.29
2022-08-03T15:51:42.391Z,32.68
2022-08-03T15:52:42.372Z,33.28
2022-08-03T15:53:42.371Z,33.09
2022-08-03T15:54:42.351Z,33.09
2022-08-03T15:55:42.341Z,32.70
2022-08-03T15:56:42.340Z,33.31
2022-08-03T15:59:03.591Z,36.43
2022-08-03T15:59:10.431Z,33.92
2022-08-03T15:59:43.293Z,35.59
2022-08-03T16:00:42.282Z,34.75
2022-08-03T16:01:42.308Z,35.05
2022-08-03T16:02:42.264Z,34.56
2022-08-03T16:03:42.266Z,34.93
2022-08-03T16:04:42.235Z,36.60
2022-08-03T16:05:42.238Z,36.71
2022-08-03T16:06:42.213Z,37.51
2022-08-03T16:07:42.206Z,37.52
2022-08-03T16:08:43.213Z,37.04
2022-08-03T16:09:43.853Z,36.47
2022-08-03T16:10:42.175Z,37.10
2022-08-03T16:11:42.166Z,36.59
2022-08-03T16:12:42.147Z,36.24
2022-08-03T16:14:13.179Z,35.22
2022-08-03T16:14:51.749Z,35.09
2022-08-03T16:15:43.118Z,33.92
2022-08-03T16:16:42.095Z,36.82
2022-08-03T16:17:42.095Z,34.11
2022-08-03T16:18:42.085Z,33.91
2022-08-03T16:19:42.078Z,32.94
2022-08-03T16:20:42.053Z,35.93
2022-08-03T16:21:48.001Z,35.57
2022-08-03T16:22:43.035Z,35.22
2022-08-03T16:23:42.025Z,34.74
2022-08-03T16:24:43.041Z,36.18
2022-08-03T16:25:42.008Z,34.81
2022-08-03T16:26:41.988Z,33.76
2022-08-03T16:28:03.194Z,33.96
2022-08-03T16:28:42.967Z,33.94
2022-08-03T16:29:41.978Z,35.48
2022-08-03T16:30:41.948Z,36.25
2022-08-03T16:31:41.938Z,34.33
2022-08-03T16:32:42.917Z,35.01
2022-08-03T16:33:41.918Z,35.69
2022-08-03T16:34:41.917Z,34.54
2022-08-03T16:35:41.907Z,35.13
2022-08-03T16:36:41.878Z,34.93
2022-08-03T16:37:56.633Z,35.25
2022-08-03T16:38:42.858Z,35.88
2022-08-03T16:39:41.941Z,35.39
2022-08-03T16:40:41.839Z,36.08
2022-08-03T16:41:53.623Z,38.23
2022-08-03T16:42:42.822Z,36.87
2022-08-03T16:43:48.879Z,36.98
2022-08-03T16:44:41.798Z,36.79
2022-08-03T16:45:41.780Z,38.96
2022-08-03T16:46:41.780Z,38.59
2022-08-03T16:47:41.761Z,39.26
2022-08-03T16:48:41.831Z,37.39
2022-08-03T16:49:55.030Z,38.26
2022-08-03T16:50:42.720Z,37.41
2022-08-03T16:51:50.373Z,37.89
2022-08-03T16:52:42.693Z,38.38
2022-08-03T16:54:05.446Z,39.16
2022-08-03T16:54:42.682Z,37.37
2022-08-03T16:55:48.799Z,36.98
2022-08-03T16:56:42.665Z,36.57
2022-08-03T16:57:58.780Z,36.47
2022-08-03T16:58:44.451Z,36.07
2022-08-03T16:59:41.644Z,36.75
2022-08-03T17:00:42.150Z,35.78
2022-08-03T17:01:41.625Z,36.55
2022-08-03T17:02:48.268Z,37.52
2022-08-03T17:04:01.819Z,36.34
2022-08-03T17:04:42.591Z,36.73
2022-08-03T17:05:46.864Z,36.91
2022-08-03T17:06:45.107Z,36.61
2022-08-03T17:07:41.619Z,37.80
2022-08-03T17:08:42.511Z,37.62
2022-08-03T17:09:42.495Z,37.62
2022-08-03T17:10:41.495Z,36.96
2022-08-03T17:11:46.665Z,38.44
2022-08-03T17:12:42.454Z,38.03
2022-08-03T17:13:41.454Z,37.97
2022-08-03T17:14:41.435Z,37.87
2022-08-03T17:15:57.842Z,37.48
2022-08-03T17:16:51.895Z,38.83
2022-08-03T17:17:53.362Z,38.64
2022-08-03T17:18:47.557Z,37.95
2022-08-03T17:19:42.375Z,38.83
2022-08-03T17:20:42.568Z,38.38
2022-08-03T17:21:41.357Z,39.36
2022-08-03T17:22:41.336Z,38.48
2022-08-03T17:23:41.338Z,40.03